sensor_id;sensor_type;location;lat;lon;timestamp;P1;durP1;ratioP1;P2;durP2;ratioP2
85077;SDS011;75413;50.144;8.456;2024-01-30T00:00:28;12.85;;;9.40;;
85077;SDS011;75413;50.144;8.456;2024-01-30T00:03:12;14.43;;;8.80;;
85077;SDS011;75413;50.144;8.456;2024-01-30T00:05:56;12.52;;;9.98;;
85077;SDS011;75413;50.144;8.456;2024-01-30T00:08:40;12.93;;;9.23;;
85077;SDS011;75413;50.144;8.456;2024-01-30T00:11:24;13.13;;;8.85;;
85077;SDS011;75413;50.144;8.456;2024-01-30T00:14:12;13.38;;;9.60;;
85077;SDS011;75413;50.144;8.456;2024-01-30T00:16:56;12.45;;;9.63;;
85077;SDS011;75413;50.144;8.456;2024-01-30T00:19:40;12.73;;;9.43;;
85077;SDS011;75413;50.144;8.456;2024-01-30T00:22:27;12.45;;;8.93;;
85077;SDS011;75413;50.144;8.456;2024-01-30T00:25:14;12.27;;;9.50;;
85077;SDS011;75413;50.144;8.456;2024-01-30T00:27:58;12.93;;;9.52;;
85077;SDS011;75413;50.144;8.456;2024-01-30T00:30:42;15.88;;;9.40;;
85077;SDS011;75413;50.144;8.456;2024-01-30T00:33:29;19.27;;;11.40;;
85077;SDS011;75413;50.144;8.456;2024-01-30T00:36:13;15.68;;;11.27;;
85077;SDS011;75413;50.144;8.456;2024-01-30T00:39:00;19.40;;;12.18;;
85077;SDS011;75413;50.144;8.456;2024-01-30T00:41:47;16.00;;;11.95;;
85077;SDS011;75413;50.144;8.456;2024-01-30T00:44:34;16.73;;;11.65;;
85077;SDS011;75413;50.144;8.456;2024-01-30T00:47:18;14.93;;;10.65;;
85077;SDS011;75413;50.144;8.456;2024-01-30T00:50:02;14.40;;;10.52;;
85077;SDS011;75413;50.144;8.456;2024-01-30T00:52:46;13.80;;;11.32;;
85077;SDS011;75413;50.144;8.456;2024-01-30T00:55:30;14.60;;;10.15;;
85077;SDS011;75413;50.144;8.456;2024-01-30T00:58:14;13.80;;;11.25;;
85077;SDS011;75413;50.144;8.456;2024-01-30T01:00:58;15.15;;;11.13;;
85077;SDS011;75413;50.144;8.456;2024-01-30T01:03:42;16.38;;;11.23;;
85077;SDS011;75413;50.144;8.456;2024-01-30T01:06:27;16.52;;;12.00;;
85077;SDS011;75413;50.144;8.456;2024-01-30T01:09:11;15.05;;;10.52;;
85077;SDS011;75413;50.144;8.456;2024-01-30T01:11:58;15.52;;;10.77;;
85077;SDS011;75413;50.144;8.456;2024-01-30T01:14:42;14.40;;;11.07;;
85077;SDS011;75413;50.144;8.456;2024-01-30T01:17:29;12.07;;;9.35;;
85077;SDS011;75413;50.144;8.456;2024-01-30T01:20:13;14.10;;;10.13;;
85077;SDS011;75413;50.144;8.456;2024-01-30T01:22:57;14.02;;;9.77;;
85077;SDS011;75413;50.144;8.456;2024-01-30T01:25:41;13.52;;;10.07;;
85077;SDS011;75413;50.144;8.456;2024-01-30T01:28:25;15.00;;;10.88;;
85077;SDS011;75413;50.144;8.456;2024-01-30T01:31:09;12.25;;;9.90;;
85077;SDS011;75413;50.144;8.456;2024-01-30T01:33:56;12.05;;;10.07;;
85077;SDS011;75413;50.144;8.456;2024-01-30T01:36:40;10.52;;;9.43;;
85077;SDS011;75413;50.144;8.456;2024-01-30T01:39:24;15.32;;;10.40;;
85077;SDS011;75413;50.144;8.456;2024-01-30T01:42:08;12.40;;;9.55;;
85077;SDS011;75413;50.144;8.456;2024-01-30T01:44:55;14.85;;;9.20;;
85077;SDS011;75413;50.144;8.456;2024-01-30T01:47:39;13.90;;;8.65;;
85077;SDS011;75413;50.144;8.456;2024-01-30T01:50:23;11.77;;;8.10;;
85077;SDS011;75413;50.144;8.456;2024-01-30T01:53:08;10.93;;;7.75;;
85077;SDS011;75413;50.144;8.456;2024-01-30T01:55:52;9.35;;;7.43;;
85077;SDS011;75413;50.144;8.456;2024-01-30T01:58:38;11.05;;;8.45;;
85077;SDS011;75413;50.144;8.456;2024-01-30T02:01:22;15.50;;;8.57;;
85077;SDS011;75413;50.144;8.456;2024-01-30T02:04:08;12.57;;;9.38;;
85077;SDS011;75413;50.144;8.456;2024-01-30T02:06:52;14.75;;;9.38;;
85077;SDS011;75413;50.144;8.456;2024-01-30T02:09:36;15.88;;;10.27;;
85077;SDS011;75413;50.144;8.456;2024-01-30T02:12:20;14.18;;;9.02;;
85077;SDS011;75413;50.144;8.456;2024-01-30T02:15:04;14.48;;;9.32;;
85077;SDS011;75413;50.144;8.456;2024-01-30T02:17:48;13.82;;;9.02;;
85077;SDS011;75413;50.144;8.456;2024-01-30T02:20:32;13.07;;;9.00;;
85077;SDS011;75413;50.144;8.456;2024-01-30T02:23:23;13.10;;;9.50;;
85077;SDS011;75413;50.144;8.456;2024-01-30T02:26:09;11.30;;;8.60;;
85077;SDS011;75413;50.144;8.456;2024-01-30T02:28:53;13.35;;;9.55;;
85077;SDS011;75413;50.144;8.456;2024-01-30T02:31:37;13.07;;;9.25;;
85077;SDS011;75413;50.144;8.456;2024-01-30T02:34:21;12.23;;;9.10;;
85077;SDS011;75413;50.144;8.456;2024-01-30T02:37:05;10.77;;;8.68;;
85077;SDS011;75413;50.144;8.456;2024-01-30T02:39:52;15.30;;;9.52;;
85077;SDS011;75413;50.144;8.456;2024-01-30T02:42:36;13.32;;;8.85;;
85077;SDS011;75413;50.144;8.456;2024-01-30T02:45:19;12.55;;;8.55;;
85077;SDS011;75413;50.144;8.456;2024-01-30T02:48:04;11.73;;;8.85;;
85077;SDS011;75413;50.144;8.456;2024-01-30T02:53:32;17.13;;;8.70;;
85077;SDS011;75413;50.144;8.456;2024-01-30T02:56:16;11.27;;;8.27;;
85077;SDS011;75413;50.144;8.456;2024-01-30T02:59:00;11.90;;;8.18;;
85077;SDS011;75413;50.144;8.456;2024-01-30T03:01:44;12.75;;;8.77;;
85077;SDS011;75413;50.144;8.456;2024-01-30T03:04:28;13.00;;;7.93;;
85077;SDS011;75413;50.144;8.456;2024-01-30T03:07:13;11.25;;;7.63;;
85077;SDS011;75413;50.144;8.456;2024-01-30T03:09:58;13.18;;;7.93;;
85077;SDS011;75413;50.144;8.456;2024-01-30T03:12:42;13.25;;;8.27;;
85077;SDS011;75413;50.144;8.456;2024-01-30T03:15:26;11.30;;;8.73;;
85077;SDS011;75413;50.144;8.456;2024-01-30T03:18:10;11.52;;;8.00;;
85077;SDS011;75413;50.144;8.456;2024-01-30T03:20:54;10.40;;;7.38;;
85077;SDS011;75413;50.144;8.456;2024-01-30T03:23:41;12.93;;;8.10;;
85077;SDS011;75413;50.144;8.456;2024-01-30T03:26:25;11.82;;;8.20;;
85077;SDS011;75413;50.144;8.456;2024-01-30T03:29:09;12.18;;;8.27;;
85077;SDS011;75413;50.144;8.456;2024-01-30T03:31:53;15.18;;;9.38;;
85077;SDS011;75413;50.144;8.456;2024-01-30T03:34:37;15.15;;;9.80;;
85077;SDS011;75413;50.144;8.456;2024-01-30T03:37:22;16.73;;;9.75;;
85077;SDS011;75413;50.144;8.456;2024-01-30T03:40:06;11.57;;;9.02;;
85077;SDS011;75413;50.144;8.456;2024-01-30T03:42:50;14.98;;;10.32;;
85077;SDS011;75413;50.144;8.456;2024-01-30T03:45:34;13.60;;;9.27;;
85077;SDS011;75413;50.144;8.456;2024-01-30T03:48:18;14.43;;;10.25;;
85077;SDS011;75413;50.144;8.456;2024-01-30T03:51:03;14.00;;;8.55;;
85077;SDS011;75413;50.144;8.456;2024-01-30T03:53:48;13.35;;;10.35;;
85077;SDS011;75413;50.144;8.456;2024-01-30T03:56:32;13.50;;;9.20;;
85077;SDS011;75413;50.144;8.456;2024-01-30T03:59:19;12.80;;;8.70;;
85077;SDS011;75413;50.144;8.456;2024-01-30T04:02:07;15.75;;;9.40;;
85077;SDS011;75413;50.144;8.456;2024-01-30T04:04:51;16.38;;;10.82;;
85077;SDS011;75413;50.144;8.456;2024-01-30T04:07:35;12.63;;;8.98;;
85077;SDS011;75413;50.144;8.456;2024-01-30T04:10:19;10.50;;;8.75;;
85077;SDS011;75413;50.144;8.456;2024-01-30T04:13:03;13.82;;;9.50;;
85077;SDS011;75413;50.144;8.456;2024-01-30T04:15:47;13.88;;;9.13;;
85077;SDS011;75413;50.144;8.456;2024-01-30T04:18:31;15.20;;;10.02;;
85077;SDS011;75413;50.144;8.456;2024-01-30T04:21:16;14.32;;;9.10;;
85077;SDS011;75413;50.144;8.456;2024-01-30T04:23:59;13.20;;;8.80;;
85077;SDS011;75413;50.144;8.456;2024-01-30T04:26:43;14.95;;;9.68;;
85077;SDS011;75413;50.144;8.456;2024-01-30T04:29:28;13.75;;;8.70;;
85077;SDS011;75413;50.144;8.456;2024-01-30T04:32:11;12.70;;;9.80;;
85077;SDS011;75413;50.144;8.456;2024-01-30T04:34:55;13.57;;;8.80;;
85077;SDS011;75413;50.144;8.456;2024-01-30T04:37:39;14.10;;;8.88;;
85077;SDS011;75413;50.144;8.456;2024-01-30T04:40:23;14.18;;;8.55;;
85077;SDS011;75413;50.144;8.456;2024-01-30T04:43:07;13.95;;;9.35;;
85077;SDS011;75413;50.144;8.456;2024-01-30T04:45:51;14.60;;;9.30;;
85077;SDS011;75413;50.144;8.456;2024-01-30T04:48:35;12.85;;;9.02;;
85077;SDS011;75413;50.144;8.456;2024-01-30T04:51:31;17.08;;;10.43;;
85077;SDS011;75413;50.144;8.456;2024-01-30T04:54:15;11.30;;;8.60;;
85077;SDS011;75413;50.144;8.456;2024-01-30T04:56:59;13.30;;;8.73;;
85077;SDS011;75413;50.144;8.456;2024-01-30T04:59:44;11.45;;;8.52;;
85077;SDS011;75413;50.144;8.456;2024-01-30T05:02:28;16.15;;;10.02;;
85077;SDS011;75413;50.144;8.456;2024-01-30T05:05:12;14.43;;;9.68;;
85077;SDS011;75413;50.144;8.456;2024-01-30T05:07:56;15.68;;;10.30;;
85077;SDS011;75413;50.144;8.456;2024-01-30T05:10:40;14.35;;;9.35;;
85077;SDS011;75413;50.144;8.456;2024-01-30T05:13:24;15.07;;;9.85;;
85077;SDS011;75413;50.144;8.456;2024-01-30T05:16:07;14.52;;;9.35;;
85077;SDS011;75413;50.144;8.456;2024-01-30T05:18:52;15.63;;;10.38;;
85077;SDS011;75413;50.144;8.456;2024-01-30T05:21:39;13.55;;;10.13;;
85077;SDS011;75413;50.144;8.456;2024-01-30T05:24:23;13.95;;;9.48;;
85077;SDS011;75413;50.144;8.456;2024-01-30T05:27:07;16.33;;;10.15;;
85077;SDS011;75413;50.144;8.456;2024-01-30T05:29:51;18.83;;;10.70;;
85077;SDS011;75413;50.144;8.456;2024-01-30T05:32:35;16.38;;;9.57;;
85077;SDS011;75413;50.144;8.456;2024-01-30T05:35:19;15.07;;;10.10;;
85077;SDS011;75413;50.144;8.456;2024-01-30T05:38:04;16.77;;;9.40;;
85077;SDS011;75413;50.144;8.456;2024-01-30T05:40:48;15.68;;;10.05;;
85077;SDS011;75413;50.144;8.456;2024-01-30T05:43:32;15.32;;;10.15;;
85077;SDS011;75413;50.144;8.456;2024-01-30T05:46:16;18.88;;;11.73;;
85077;SDS011;75413;50.144;8.456;2024-01-30T05:49:06;16.23;;;10.55;;
85077;SDS011;75413;50.144;8.456;2024-01-30T05:51:50;16.05;;;9.85;;
85077;SDS011;75413;50.144;8.456;2024-01-30T05:54:34;17.20;;;10.90;;
85077;SDS011;75413;50.144;8.456;2024-01-30T05:57:18;16.30;;;10.05;;
85077;SDS011;75413;50.144;8.456;2024-01-30T06:00:02;15.13;;;10.27;;
85077;SDS011;75413;50.144;8.456;2024-01-30T06:02:48;16.45;;;10.65;;
85077;SDS011;75413;50.144;8.456;2024-01-30T06:05:32;17.75;;;11.88;;
85077;SDS011;75413;50.144;8.456;2024-01-30T06:08:16;15.30;;;11.23;;
85077;SDS011;75413;50.144;8.456;2024-01-30T06:11:00;14.90;;;11.18;;
85077;SDS011;75413;50.144;8.456;2024-01-30T06:16:28;16.38;;;9.73;;
85077;SDS011;75413;50.144;8.456;2024-01-30T06:19:13;17.10;;;12.10;;
85077;SDS011;75413;50.144;8.456;2024-01-30T06:21:57;16.95;;;11.18;;
85077;SDS011;75413;50.144;8.456;2024-01-30T06:24:40;16.27;;;10.68;;
85077;SDS011;75413;50.144;8.456;2024-01-30T06:27:24;15.82;;;11.48;;
85077;SDS011;75413;50.144;8.456;2024-01-30T06:30:08;18.75;;;11.25;;
85077;SDS011;75413;50.144;8.456;2024-01-30T06:32:53;15.52;;;11.18;;
85077;SDS011;75413;50.144;8.456;2024-01-30T06:35:37;15.10;;;10.43;;
85077;SDS011;75413;50.144;8.456;2024-01-30T06:38:24;16.55;;;10.98;;
85077;SDS011;75413;50.144;8.456;2024-01-30T06:41:08;15.50;;;11.85;;
85077;SDS011;75413;50.144;8.456;2024-01-30T06:43:52;18.40;;;11.82;;
85077;SDS011;75413;50.144;8.456;2024-01-30T06:46:36;21.15;;;12.25;;
85077;SDS011;75413;50.144;8.456;2024-01-30T06:49:20;17.98;;;12.60;;
85077;SDS011;75413;50.144;8.456;2024-01-30T06:52:06;19.58;;;12.68;;
85077;SDS011;75413;50.144;8.456;2024-01-30T06:57:34;16.98;;;12.60;;
85077;SDS011;75413;50.144;8.456;2024-01-30T07:00:18;18.52;;;12.77;;
85077;SDS011;75413;50.144;8.456;2024-01-30T07:03:03;21.33;;;13.70;;
85077;SDS011;75413;50.144;8.456;2024-01-30T07:05:47;21.80;;;14.27;;
85077;SDS011;75413;50.144;8.456;2024-01-30T07:08:32;20.58;;;13.13;;
85077;SDS011;75413;50.144;8.456;2024-01-30T07:11:19;19.60;;;13.70;;
85077;SDS011;75413;50.144;8.456;2024-01-30T07:14:08;18.98;;;14.32;;
85077;SDS011;75413;50.144;8.456;2024-01-30T07:16:53;20.35;;;13.40;;
85077;SDS011;75413;50.144;8.456;2024-01-30T07:19:36;18.02;;;13.45;;
85077;SDS011;75413;50.144;8.456;2024-01-30T07:22:20;19.15;;;14.10;;
85077;SDS011;75413;50.144;8.456;2024-01-30T07:25:04;19.40;;;14.68;;
85077;SDS011;75413;50.144;8.456;2024-01-30T07:27:49;18.83;;;14.18;;
85077;SDS011;75413;50.144;8.456;2024-01-30T07:30:33;23.95;;;14.48;;
85077;SDS011;75413;50.144;8.456;2024-01-30T07:33:17;22.52;;;13.80;;
85077;SDS011;75413;50.144;8.456;2024-01-30T07:36:01;18.55;;;13.55;;
85077;SDS011;75413;50.144;8.456;2024-01-30T07:38:45;19.90;;;13.75;;
85077;SDS011;75413;50.144;8.456;2024-01-30T07:41:29;19.50;;;13.52;;
85077;SDS011;75413;50.144;8.456;2024-01-30T07:44:13;24.38;;;14.00;;
85077;SDS011;75413;50.144;8.456;2024-01-30T07:46:57;21.83;;;14.15;;
85077;SDS011;75413;50.144;8.456;2024-01-30T07:49:41;20.63;;;13.57;;
85077;SDS011;75413;50.144;8.456;2024-01-30T07:52:25;18.02;;;11.80;;
85077;SDS011;75413;50.144;8.456;2024-01-30T07:55:09;18.63;;;13.75;;
85077;SDS011;75413;50.144;8.456;2024-01-30T07:57:55;18.13;;;13.30;;
85077;SDS011;75413;50.144;8.456;2024-01-30T08:00:39;20.20;;;13.18;;
85077;SDS011;75413;50.144;8.456;2024-01-30T08:03:23;19.63;;;13.55;;
85077;SDS011;75413;50.144;8.456;2024-01-30T08:06:07;16.60;;;12.52;;
85077;SDS011;75413;50.144;8.456;2024-01-30T08:08:51;19.23;;;14.48;;
85077;SDS011;75413;50.144;8.456;2024-01-30T08:11:37;19.33;;;13.13;;
85077;SDS011;75413;50.144;8.456;2024-01-30T08:14:21;20.83;;;12.52;;
85077;SDS011;75413;50.144;8.456;2024-01-30T08:17:05;18.75;;;13.98;;
85077;SDS011;75413;50.144;8.456;2024-01-30T08:19:51;18.73;;;12.80;;
85077;SDS011;75413;50.144;8.456;2024-01-30T08:22:35;18.08;;;12.77;;
85077;SDS011;75413;50.144;8.456;2024-01-30T08:25:19;19.92;;;13.98;;
85077;SDS011;75413;50.144;8.456;2024-01-30T08:28:03;19.40;;;12.82;;
85077;SDS011;75413;50.144;8.456;2024-01-30T08:30:47;19.15;;;13.60;;
85077;SDS011;75413;50.144;8.456;2024-01-30T08:33:31;21.10;;;14.25;;
85077;SDS011;75413;50.144;8.456;2024-01-30T08:36:16;19.17;;;12.38;;
85077;SDS011;75413;50.144;8.456;2024-01-30T08:39:00;17.33;;;13.35;;
85077;SDS011;75413;50.144;8.456;2024-01-30T08:41:44;19.50;;;13.50;;
85077;SDS011;75413;50.144;8.456;2024-01-30T08:44:28;22.50;;;13.60;;
85077;SDS011;75413;50.144;8.456;2024-01-30T08:47:12;23.05;;;15.50;;
85077;SDS011;75413;50.144;8.456;2024-01-30T08:49:56;20.90;;;15.43;;
85077;SDS011;75413;50.144;8.456;2024-01-30T08:52:40;20.98;;;15.20;;
85077;SDS011;75413;50.144;8.456;2024-01-30T08:55:24;18.38;;;13.40;;
85077;SDS011;75413;50.144;8.456;2024-01-30T08:58:08;20.08;;;13.82;;
85077;SDS011;75413;50.144;8.456;2024-01-30T09:00:52;19.30;;;13.98;;
85077;SDS011;75413;50.144;8.456;2024-01-30T09:03:36;24.13;;;14.52;;
85077;SDS011;75413;50.144;8.456;2024-01-30T09:06:23;20.13;;;14.27;;
85077;SDS011;75413;50.144;8.456;2024-01-30T09:09:08;23.55;;;14.38;;
85077;SDS011;75413;50.144;8.456;2024-01-30T09:11:53;18.65;;;14.30;;
85077;SDS011;75413;50.144;8.456;2024-01-30T09:14:37;22.23;;;14.65;;
85077;SDS011;75413;50.144;8.456;2024-01-30T09:17:22;22.13;;;14.13;;
85077;SDS011;75413;50.144;8.456;2024-01-30T09:20:07;17.85;;;13.98;;
85077;SDS011;75413;50.144;8.456;2024-01-30T09:22:53;22.77;;;14.57;;
85077;SDS011;75413;50.144;8.456;2024-01-30T09:25:36;17.27;;;14.05;;
85077;SDS011;75413;50.144;8.456;2024-01-30T09:28:20;18.83;;;13.73;;
85077;SDS011;75413;50.144;8.456;2024-01-30T09:31:04;18.85;;;14.00;;
85077;SDS011;75413;50.144;8.456;2024-01-30T09:33:53;18.27;;;13.70;;
85077;SDS011;75413;50.144;8.456;2024-01-30T09:36:37;18.05;;;13.25;;
85077;SDS011;75413;50.144;8.456;2024-01-30T09:39:21;18.50;;;14.48;;
85077;SDS011;75413;50.144;8.456;2024-01-30T09:42:10;22.38;;;16.23;;
85077;SDS011;75413;50.144;8.456;2024-01-30T09:44:58;20.40;;;14.82;;
85077;SDS011;75413;50.144;8.456;2024-01-30T09:47:42;19.30;;;15.10;;
85077;SDS011;75413;50.144;8.456;2024-01-30T09:50:27;25.98;;;15.80;;
85077;SDS011;75413;50.144;8.456;2024-01-30T09:55:57;21.23;;;14.93;;
85077;SDS011;75413;50.144;8.456;2024-01-30T09:58:41;20.33;;;14.77;;
85077;SDS011;75413;50.144;8.456;2024-01-30T10:01:25;21.35;;;14.88;;
85077;SDS011;75413;50.144;8.456;2024-01-30T10:04:10;19.63;;;14.45;;
85077;SDS011;75413;50.144;8.456;2024-01-30T10:06:54;20.17;;;15.05;;
85077;SDS011;75413;50.144;8.456;2024-01-30T10:09:38;18.90;;;15.48;;
85077;SDS011;75413;50.144;8.456;2024-01-30T10:12:23;26.45;;;16.08;;
85077;SDS011;75413;50.144;8.456;2024-01-30T10:15:07;21.23;;;16.23;;
85077;SDS011;75413;50.144;8.456;2024-01-30T10:17:52;22.05;;;15.70;;
85077;SDS011;75413;50.144;8.456;2024-01-30T10:20:36;23.45;;;14.82;;
85077;SDS011;75413;50.144;8.456;2024-01-30T10:23:20;20.38;;;15.23;;
85077;SDS011;75413;50.144;8.456;2024-01-30T10:26:05;22.85;;;15.80;;
85077;SDS011;75413;50.144;8.456;2024-01-30T10:28:51;17.73;;;13.07;;
85077;SDS011;75413;50.144;8.456;2024-01-30T10:31:35;20.00;;;14.75;;
85077;SDS011;75413;50.144;8.456;2024-01-30T10:34:19;17.38;;;13.85;;
85077;SDS011;75413;50.144;8.456;2024-01-30T10:37:09;21.02;;;16.00;;
85077;SDS011;75413;50.144;8.456;2024-01-30T10:39:56;19.45;;;14.45;;
85077;SDS011;75413;50.144;8.456;2024-01-30T10:42:47;22.02;;;15.48;;
85077;SDS011;75413;50.144;8.456;2024-01-30T10:45:36;23.65;;;14.95;;
85077;SDS011;75413;50.144;8.456;2024-01-30T10:48:24;20.05;;;14.95;;
85077;SDS011;75413;50.144;8.456;2024-01-30T10:51:13;22.42;;;15.30;;
85077;SDS011;75413;50.144;8.456;2024-01-30T10:53:58;19.90;;;15.32;;
85077;SDS011;75413;50.144;8.456;2024-01-30T10:56:42;22.30;;;14.82;;
85077;SDS011;75413;50.144;8.456;2024-01-30T10:59:26;19.42;;;15.95;;
85077;SDS011;75413;50.144;8.456;2024-01-30T11:02:11;21.45;;;14.98;;
85077;SDS011;75413;50.144;8.456;2024-01-30T11:04:59;22.65;;;14.95;;
85077;SDS011;75413;50.144;8.456;2024-01-30T11:07:43;18.95;;;13.93;;
85077;SDS011;75413;50.144;8.456;2024-01-30T11:10:30;20.85;;;15.63;;
85077;SDS011;75413;50.144;8.456;2024-01-30T11:13:15;21.27;;;14.88;;
85077;SDS011;75413;50.144;8.456;2024-01-30T11:16:03;19.58;;;14.88;;
85077;SDS011;75413;50.144;8.456;2024-01-30T11:18:52;22.15;;;16.38;;
85077;SDS011;75413;50.144;8.456;2024-01-30T11:21:42;18.50;;;14.00;;
85077;SDS011;75413;50.144;8.456;2024-01-30T11:24:27;20.20;;;16.20;;
85077;SDS011;75413;50.144;8.456;2024-01-30T11:27:11;19.42;;;15.15;;
85077;SDS011;75413;50.144;8.456;2024-01-30T11:30:00;22.75;;;15.98;;
85077;SDS011;75413;50.144;8.456;2024-01-30T11:32:45;20.15;;;15.55;;
85077;SDS011;75413;50.144;8.456;2024-01-30T11:35:29;21.00;;;15.68;;
85077;SDS011;75413;50.144;8.456;2024-01-30T11:38:14;18.27;;;15.43;;
85077;SDS011;75413;50.144;8.456;2024-01-30T11:40:59;18.60;;;15.48;;
85077;SDS011;75413;50.144;8.456;2024-01-30T11:43:51;20.70;;;16.63;;
85077;SDS011;75413;50.144;8.456;2024-01-30T11:46:36;23.42;;;17.15;;
85077;SDS011;75413;50.144;8.456;2024-01-30T11:49:20;20.80;;;15.57;;
85077;SDS011;75413;50.144;8.456;2024-01-30T11:52:05;27.05;;;15.48;;
85077;SDS011;75413;50.144;8.456;2024-01-30T11:54:49;22.90;;;17.77;;
85077;SDS011;75413;50.144;8.456;2024-01-30T12:00:19;20.73;;;16.50;;
85077;SDS011;75413;50.144;8.456;2024-01-30T12:03:04;25.35;;;16.25;;
85077;SDS011;75413;50.144;8.456;2024-01-30T12:05:56;25.00;;;16.92;;
85077;SDS011;75413;50.144;8.456;2024-01-30T12:08:42;21.17;;;15.50;;
85077;SDS011;75413;50.144;8.456;2024-01-30T12:11:26;21.30;;;15.70;;
85077;SDS011;75413;50.144;8.456;2024-01-30T12:14:11;23.92;;;16.50;;
85077;SDS011;75413;50.144;8.456;2024-01-30T12:16:56;24.80;;;16.88;;
85077;SDS011;75413;50.144;8.456;2024-01-30T12:19:40;20.58;;;16.30;;
85077;SDS011;75413;50.144;8.456;2024-01-30T12:22:24;21.10;;;15.80;;
85077;SDS011;75413;50.144;8.456;2024-01-30T12:25:12;23.35;;;16.60;;
85077;SDS011;75413;50.144;8.456;2024-01-30T12:27:57;20.30;;;15.27;;
85077;SDS011;75413;50.144;8.456;2024-01-30T12:30:41;20.38;;;15.88;;
85077;SDS011;75413;50.144;8.456;2024-01-30T12:33:26;21.88;;;17.05;;
85077;SDS011;75413;50.144;8.456;2024-01-30T12:36:11;22.10;;;15.02;;
85077;SDS011;75413;50.144;8.456;2024-01-30T12:38:56;19.80;;;14.90;;
85077;SDS011;75413;50.144;8.456;2024-01-30T12:41:40;19.35;;;14.52;;
85077;SDS011;75413;50.144;8.456;2024-01-30T12:44:24;18.13;;;14.68;;
85077;SDS011;75413;50.144;8.456;2024-01-30T12:47:08;16.10;;;13.15;;
85077;SDS011;75413;50.144;8.456;2024-01-30T12:49:53;18.15;;;13.52;;
85077;SDS011;75413;50.144;8.456;2024-01-30T12:52:37;19.33;;;13.55;;
85077;SDS011;75413;50.144;8.456;2024-01-30T12:55:22;20.77;;;12.55;;
85077;SDS011;75413;50.144;8.456;2024-01-30T12:58:08;14.75;;;12.65;;
85077;SDS011;75413;50.144;8.456;2024-01-30T13:00:52;17.70;;;11.82;;
85077;SDS011;75413;50.144;8.456;2024-01-30T13:03:37;18.00;;;12.65;;
85077;SDS011;75413;50.144;8.456;2024-01-30T13:06:27;15.85;;;11.30;;
85077;SDS011;75413;50.144;8.456;2024-01-30T13:09:11;16.65;;;11.38;;
85077;SDS011;75413;50.144;8.456;2024-01-30T13:11:56;14.05;;;10.43;;
85077;SDS011;75413;50.144;8.456;2024-01-30T13:14:40;15.60;;;10.30;;
85077;SDS011;75413;50.144;8.456;2024-01-30T13:17:24;15.07;;;10.80;;
85077;SDS011;75413;50.144;8.456;2024-01-30T13:20:11;14.15;;;10.93;;
85077;SDS011;75413;50.144;8.456;2024-01-30T13:22:55;15.27;;;11.55;;
85077;SDS011;75413;50.144;8.456;2024-01-30T13:25:39;16.02;;;10.95;;
85077;SDS011;75413;50.144;8.456;2024-01-30T13:28:24;16.27;;;12.60;;
85077;SDS011;75413;50.144;8.456;2024-01-30T13:31:09;18.42;;;12.82;;
85077;SDS011;75413;50.144;8.456;2024-01-30T13:33:53;16.63;;;13.23;;
85077;SDS011;75413;50.144;8.456;2024-01-30T13:36:38;14.75;;;12.88;;
85077;SDS011;75413;50.144;8.456;2024-01-30T13:39:22;17.40;;;13.23;;
85077;SDS011;75413;50.144;8.456;2024-01-30T13:42:06;15.85;;;12.57;;
85077;SDS011;75413;50.144;8.456;2024-01-30T13:44:50;17.02;;;13.07;;
85077;SDS011;75413;50.144;8.456;2024-01-30T13:47:34;20.00;;;13.50;;
85077;SDS011;75413;50.144;8.456;2024-01-30T13:50:18;21.80;;;14.38;;
85077;SDS011;75413;50.144;8.456;2024-01-30T13:53:02;18.58;;;14.00;;
85077;SDS011;75413;50.144;8.456;2024-01-30T13:55:47;16.90;;;13.77;;
85077;SDS011;75413;50.144;8.456;2024-01-30T13:58:31;14.98;;;10.73;;
85077;SDS011;75413;50.144;8.456;2024-01-30T14:01:17;17.20;;;12.05;;
85077;SDS011;75413;50.144;8.456;2024-01-30T14:04:01;15.68;;;12.63;;
85077;SDS011;75413;50.144;8.456;2024-01-30T14:06:45;14.10;;;11.27;;
85077;SDS011;75413;50.144;8.456;2024-01-30T14:09:29;15.27;;;12.13;;
85077;SDS011;75413;50.144;8.456;2024-01-30T14:12:13;13.32;;;10.18;;
85077;SDS011;75413;50.144;8.456;2024-01-30T14:14:57;15.40;;;10.73;;
85077;SDS011;75413;50.144;8.456;2024-01-30T14:20:25;16.65;;;11.90;;
85077;SDS011;75413;50.144;8.456;2024-01-30T14:23:09;14.18;;;11.48;;
85077;SDS011;75413;50.144;8.456;2024-01-30T14:25:53;17.80;;;11.60;;
85077;SDS011;75413;50.144;8.456;2024-01-30T14:28:37;16.45;;;11.50;;
85077;SDS011;75413;50.144;8.456;2024-01-30T14:31:21;15.48;;;11.35;;
85077;SDS011;75413;50.144;8.456;2024-01-30T14:34:08;14.30;;;10.88;;
85077;SDS011;75413;50.144;8.456;2024-01-30T14:36:54;15.00;;;11.27;;
85077;SDS011;75413;50.144;8.456;2024-01-30T14:39:39;15.48;;;10.75;;
85077;SDS011;75413;50.144;8.456;2024-01-30T14:42:24;13.65;;;10.85;;
85077;SDS011;75413;50.144;8.456;2024-01-30T14:45:08;13.82;;;9.40;;
85077;SDS011;75413;50.144;8.456;2024-01-30T14:47:53;17.25;;;9.68;;
85077;SDS011;75413;50.144;8.456;2024-01-30T14:50:39;15.05;;;10.80;;
85077;SDS011;75413;50.144;8.456;2024-01-30T14:53:23;13.32;;;9.60;;
85077;SDS011;75413;50.144;8.456;2024-01-30T14:56:08;15.40;;;9.80;;
85077;SDS011;75413;50.144;8.456;2024-01-30T14:58:51;12.77;;;9.27;;
85077;SDS011;75413;50.144;8.456;2024-01-30T15:01:35;14.70;;;10.77;;
85077;SDS011;75413;50.144;8.456;2024-01-30T15:07:03;14.02;;;10.63;;
85077;SDS011;75413;50.144;8.456;2024-01-30T15:09:47;15.80;;;11.65;;
85077;SDS011;75413;50.144;8.456;2024-01-30T15:15:15;18.40;;;12.00;;
85077;SDS011;75413;50.144;8.456;2024-01-30T15:17:59;15.50;;;12.10;;
85077;SDS011;75413;50.144;8.456;2024-01-30T15:20:43;21.30;;;16.02;;
85077;SDS011;75413;50.144;8.456;2024-01-30T15:23:27;15.63;;;10.23;;
85077;SDS011;75413;50.144;8.456;2024-01-30T15:26:11;12.43;;;9.45;;
85077;SDS011;75413;50.144;8.456;2024-01-30T15:28:55;17.27;;;9.45;;
85077;SDS011;75413;50.144;8.456;2024-01-30T15:31:39;14.80;;;9.52;;
85077;SDS011;75413;50.144;8.456;2024-01-30T15:34:23;12.77;;;9.23;;
85077;SDS011;75413;50.144;8.456;2024-01-30T15:37:07;13.77;;;9.57;;
85077;SDS011;75413;50.144;8.456;2024-01-30T15:39:52;14.85;;;9.25;;
85077;SDS011;75413;50.144;8.456;2024-01-30T15:42:36;13.32;;;9.50;;
85077;SDS011;75413;50.144;8.456;2024-01-30T15:45:20;13.07;;;9.38;;
85077;SDS011;75413;50.144;8.456;2024-01-30T15:48:04;14.10;;;9.60;;
85077;SDS011;75413;50.144;8.456;2024-01-30T15:50:52;14.27;;;9.55;;
85077;SDS011;75413;50.144;8.456;2024-01-30T15:53:39;15.60;;;10.60;;
85077;SDS011;75413;50.144;8.456;2024-01-30T15:56:23;18.35;;;10.52;;
85077;SDS011;75413;50.144;8.456;2024-01-30T15:59:07;15.90;;;10.57;;
85077;SDS011;75413;50.144;8.456;2024-01-30T16:01:51;16.73;;;10.75;;
85077;SDS011;75413;50.144;8.456;2024-01-30T16:04:35;18.60;;;10.32;;
85077;SDS011;75413;50.144;8.456;2024-01-30T16:10:03;17.00;;;11.73;;
85077;SDS011;75413;50.144;8.456;2024-01-30T16:12:47;26.30;;;12.63;;
85077;SDS011;75413;50.144;8.456;2024-01-30T16:15:31;20.00;;;12.55;;
85077;SDS011;75413;50.144;8.456;2024-01-30T16:18:15;15.20;;;10.88;;
85077;SDS011;75413;50.144;8.456;2024-01-30T16:20:59;24.00;;;12.20;;
85077;SDS011;75413;50.144;8.456;2024-01-30T16:23:43;17.73;;;12.98;;
85077;SDS011;75413;50.144;8.456;2024-01-30T16:26:30;21.15;;;13.63;;
85077;SDS011;75413;50.144;8.456;2024-01-30T16:29:14;19.42;;;12.38;;
85077;SDS011;75413;50.144;8.456;2024-01-30T16:31:58;22.83;;;12.38;;